Time;durP1;ratioP1;P1;durP2;ratioP2;P2;SDS_P1;SDS_P2;PMS_P1;PMS_P2;Temp;Humidity;BMP_temperature;BMP_pressure;BME280_temperature;BME280_humidity;BME280_pressure;Samples;Min_cycle;Max_cycle;Signal;HPM_P1;HPM_P2
2022/01/07 00:02:10;;;;;;;0.60;0.60;;;;;;;;;;5084298;28;20407;-59
2022/01/07 00:04:36;;;;;;;0.70;0.70;;;;;;;;;;5086457;28;20170;-62
2022/01/07 00:07:05;;;;;;;0.60;0.60;;;;;;;;;;5085450;28;20565;-61
2022/01/07 00:09:31;;;;;;;0.60;0.60;;;;;;;;;;5084272;28;20195;-61
2022/01/07 00:11:57;;;;;;;0.70;0.70;;;;;;;;;;5085748;28;20619;-61
2022/01/07 00:14:23;;;;;;;0.70;0.70;;;;;;;;;;5085092;28;20401;-61
2022/01/07 00:16:49;;;;;;;0.70;0.70;;;;;;;;;;5084172;28;20266;-59
2022/01/07 00:19:17;;;;;;;0.50;0.50;;;;;;;;;;5085909;28;20404;-61
2022/01/07 00:21:43;;;;;;;0.60;0.60;;;;;;;;;;5085026;28;20445;-61
2022/01/07 00:24:09;;;;;;;0.60;0.60;;;;;;;;;;5084257;28;20668;-61
2022/01/07 00:26:35;;;;;;;0.60;0.60;;;;;;;;;;5085807;28;20749;-61
2022/01/07 00:29:01;;;;;;;0.60;0.60;;;;;;;;;;5084651;28;20484;-61
2022/01/07 00:31:26;;;;;;;0.70;0.70;;;;;;;;;;5086465;28;20411;-61
2022/01/07 00:33:52;;;;;;;0.70;0.70;;;;;;;;;;5083431;28;20405;-61
2022/01/07 00:36:18;;;;;;;0.60;0.60;;;;;;;;;;5085163;28;20448;-60
2022/01/07 00:38:44;;;;;;;0.67;0.67;;;;;;;;;;5067842;28;20217;-61
2022/01/07 00:41:10;;;;;;;0.60;0.60;;;;;;;;;;5086587;28;21465;-60
2022/01/07 00:43:36;;;;;;;0.60;0.60;;;;;;;;;;5080707;28;20406;-60
2022/01/07 00:46:02;;;;;;;0.60;0.60;;;;;;;;;;5084496;28;20165;-60
2022/01/07 00:48:28;;;;;;;0.60;0.60;;;;;;;;;;5074464;28;20278;-59
2022/01/07 00:50:54;;;;;;;0.60;0.60;;;;;;;;;;5056463;28;20556;-58
2022/01/07 00:53:20;;;;;;;0.70;0.70;;;;;;;;;;5074347;28;20897;-61
2022/01/07 00:55:46;;;;;;;0.70;0.70;;;;;;;;;;5057042;28;20172;-61
2022/01/07 00:58:12;;;;;;;0.60;0.60;;;;;;;;;;5073595;28;20437;-61
2022/01/07 01:00:38;;;;;;;0.65;0.65;;;;;;;;;;5074332;28;20449;-61
2022/01/07 01:03:04;;;;;;;0.60;0.60;;;;;;;;;;5074323;28;20163;-62
2022/01/07 01:05:32;;;;;;;0.70;0.70;;;;;;;;;;5074256;28;20402;-62
2022/01/07 01:07:58;;;;;;;0.60;0.60;;;;;;;;;;5074463;28;20194;-62
2022/01/07 01:10:27;;;;;;;0.50;0.50;;;;;;;;;;5074406;28;20194;-60
2022/01/07 01:12:54;;;;;;;0.60;0.60;;;;;;;;;;5074471;28;20592;-60
2022/01/07 01:15:22;;;;;;;0.60;0.60;;;;;;;;;;5074247;28;20183;-60
2022/01/07 01:17:48;;;;;;;0.60;0.60;;;;;;;;;;5056169;28;20286;-62
2022/01/07 01:20:14;;;;;;;0.70;0.70;;;;;;;;;;5073939;28;20199;-62
2022/01/07 01:22:40;;;;;;;0.65;0.65;;;;;;;;;;5073517;28;20309;-62
2022/01/07 01:25:07;;;;;;;0.63;0.63;;;;;;;;;;5074009;28;20176;-62
2022/01/07 01:27:33;;;;;;;0.70;0.70;;;;;;;;;;5055763;28;20192;-62
2022/01/07 01:30:01;;;;;;;0.70;0.70;;;;;;;;;;5073909;28;20258;-62
2022/01/07 01:32:27;;;;;;;0.70;0.70;;;;;;;;;;5072657;28;20173;-62
2022/01/07 01:34:53;;;;;;;0.70;0.70;;;;;;;;;;5073546;28;20262;-62
2022/01/07 01:37:18;;;;;;;0.70;0.70;;;;;;;;;;5073604;28;20453;-61
2022/01/07 01:39:44;;;;;;;0.70;0.70;;;;;;;;;;5074030;28;20457;-62
2022/01/07 01:42:10;;;;;;;0.60;0.60;;;;;;;;;;5073550;28;20892;-61
2022/01/07 01:44:36;;;;;;;0.70;0.70;;;;;;;;;;5073232;28;20397;-60
2022/01/07 01:47:03;;;;;;;0.70;0.70;;;;;;;;;;5073664;28;20289;-62
2022/01/07 01:49:29;;;;;;;0.70;0.70;;;;;;;;;;5073515;28;20175;-60
2022/01/07 01:51:55;;;;;;;0.70;0.70;;;;;;;;;;5073450;28;20177;-62
2022/01/07 01:54:21;;;;;;;0.70;0.70;;;;;;;;;;5073413;28;20639;-61
2022/01/07 01:56:47;;;;;;;0.60;0.60;;;;;;;;;;5073231;28;20393;-61
2022/01/07 01:59:13;;;;;;;0.60;0.60;;;;;;;;;;5073166;28;20641;-60
2022/01/07 02:01:40;;;;;;;0.80;0.80;;;;;;;;;;5055631;28;20606;-62
2022/01/07 02:04:06;;;;;;;0.70;0.70;;;;;;;;;;5072821;28;20657;-61
2022/01/07 02:06:32;;;;;;;0.80;0.80;;;;;;;;;;5073222;28;20183;-62
2022/01/07 02:08:58;;;;;;;0.60;0.60;;;;;;;;;;5071936;28;20187;-62
2022/01/07 02:11:24;;;;;;;0.70;0.70;;;;;;;;;;5073206;28;20421;-62
2022/01/07 02:13:55;;;;;;;0.53;0.53;;;;;;;;;;5072969;28;20224;-62
2022/01/07 02:16:23;;;;;;;0.70;0.70;;;;;;;;;;5073061;28;20421;-61
2022/01/07 02:18:49;;;;;;;0.70;0.70;;;;;;;;;;5072921;28;20200;-62
2022/01/07 02:21:15;;;;;;;0.70;0.70;;;;;;;;;;5072314;28;20673;-61
2022/01/07 02:23:41;;;;;;;0.75;0.75;;;;;;;;;;5071093;28;20401;-61
2022/01/07 02:26:08;;;;;;;0.70;0.70;;;;;;;;;;5072339;28;20181;-62
2022/01/07 02:28:35;;;;;;;0.60;0.60;;;;;;;;;;5070843;28;20421;-62
2022/01/07 02:31:01;;;;;;;0.80;0.80;;;;;;;;;;5072315;28;20175;-62
2022/01/07 02:33:27;;;;;;;0.60;0.60;;;;;;;;;;5072474;28;20514;-61
2022/01/07 02:35:53;;;;;;;0.77;0.77;;;;;;;;;;5073754;28;20304;-60
2022/01/07 02:38:18;;;;;;;0.53;0.53;;;;;;;;;;5073021;28;20959;-62
2022/01/07 02:40:44;;;;;;;0.60;0.60;;;;;;;;;;5054807;28;20449;-61
2022/01/07 02:43:10;;;;;;;0.70;0.70;;;;;;;;;;5072868;28;20405;-61
2022/01/07 02:45:36;;;;;;;0.60;0.60;;;;;;;;;;5072061;28;20621;-62
2022/01/07 02:48:03;;;;;;;0.60;0.60;;;;;;;;;;5072301;28;20449;-62
2022/01/07 02:50:29;;;;;;;0.60;0.60;;;;;;;;;;5072803;28;20662;-62
2022/01/07 02:52:55;;;;;;;0.60;0.60;;;;;;;;;;5072507;28;20232;-62
2022/01/07 02:55:22;;;;;;;0.70;0.70;;;;;;;;;;5054531;28;20486;-62
2022/01/07 02:57:49;;;;;;;0.60;0.60;;;;;;;;;;5072566;28;20194;-62
2022/01/07 03:00:17;;;;;;;0.70;0.70;;;;;;;;;;5072348;28;20202;-62
2022/01/07 03:02:43;;;;;;;0.60;0.60;;;;;;;;;;5072086;28;20223;-62
2022/01/07 03:05:09;;;;;;;0.70;0.70;;;;;;;;;;5072261;28;20171;-62
2022/01/07 03:07:35;;;;;;;0.52;0.52;;;;;;;;;;5071953;28;20199;-62
2022/01/07 03:10:01;;;;;;;0.70;0.70;;;;;;;;;;5072525;28;20190;-64
2022/01/07 03:12:27;;;;;;;0.60;0.60;;;;;;;;;;5072107;28;20183;-61
2022/01/07 03:14:53;;;;;;;0.50;0.50;;;;;;;;;;5072283;28;20417;-62
2022/01/07 03:17:19;;;;;;;0.70;0.70;;;;;;;;;;5071826;28;20195;-62
2022/01/07 03:19:45;;;;;;;0.50;0.50;;;;;;;;;;5071467;28;20546;-62
2022/01/07 03:22:11;;;;;;;0.70;0.70;;;;;;;;;;5071698;28;20412;-62
2022/01/07 03:24:38;;;;;;;0.60;0.60;;;;;;;;;;5071664;28;20171;-62
2022/01/07 03:27:04;;;;;;;0.60;0.60;;;;;;;;;;5071863;28;21334;-62
2022/01/07 03:29:30;;;;;;;0.60;0.60;;;;;;;;;;5053834;28;20177;-60
2022/01/07 03:31:56;;;;;;;0.70;0.70;;;;;;;;;;5071756;28;20254;-60
2022/01/07 03:34:22;;;;;;;0.60;0.60;;;;;;;;;;5053476;28;20461;-62
2022/01/07 03:36:48;;;;;;;0.60;0.60;;;;;;;;;;5071548;28;20436;-62
2022/01/07 03:39:14;;;;;;;0.70;0.70;;;;;;;;;;5071979;28;20449;-62
2022/01/07 03:41:40;;;;;;;0.60;0.60;;;;;;;;;;5071541;28;20510;-62
2022/01/07 03:44:06;;;;;;;0.70;0.70;;;;;;;;;;5071558;28;20171;-61
2022/01/07 03:46:32;;;;;;;0.70;0.70;;;;;;;;;;5071592;28;20508;-61
2022/01/07 03:48:58;;;;;;;0.70;0.70;;;;;;;;;;5071458;28;20425;-61
2022/01/07 03:51:23;;;;;;;0.60;0.60;;;;;;;;;;5071597;28;20416;-60
2022/01/07 03:53:49;;;;;;;0.60;0.60;;;;;;;;;;5053500;28;20608;-61
2022/01/07 03:56:18;;;;;;;0.70;0.70;;;;;;;;;;5053687;28;20781;-61
2022/01/07 03:58:45;;;;;;;0.70;0.70;;;;;;;;;;5071477;28;20199;-61
2022/01/07 04:01:11;;;;;;;0.70;0.70;;;;;;;;;;5071571;28;20213;-60
2022/01/07 04:03:37;;;;;;;0.60;0.60;;;;;;;;;;5053213;28;20209;-62
2022/01/07 04:06:03;;;;;;;0.70;0.70;;;;;;;;;;5071304;28;20757;-61
2022/01/07 04:08:29;;;;;;;0.70;0.70;;;;;;;;;;5048448;28;20960;-61
2022/01/07 04:10:55;;;;;;;0.60;0.60;;;;;;;;;;5038317;28;20593;-64
2022/01/07 04:13:21;;;;;;;0.70;0.70;;;;;;;;;;5053409;28;20191;-61
2022/01/07 04:15:47;;;;;;;0.60;0.60;;;;;;;;;;5071571;28;20183;-60
2022/01/07 04:18:13;;;;;;;0.73;0.73;;;;;;;;;;5071419;28;20527;-61
2022/01/07 04:20:39;;;;;;;0.60;0.60;;;;;;;;;;5059943;28;20832;-61
2022/01/07 04:23:06;;;;;;;0.70;0.70;;;;;;;;;;5061739;28;20789;-61
2022/01/07 04:25:33;;;;;;;0.70;0.70;;;;;;;;;;5070830;28;20183;-61
2022/01/07 04:28:04;;;;;;;0.60;0.60;;;;;;;;;;5064911;28;20200;-61
2022/01/07 04:30:34;;;;;;;0.63;0.63;;;;;;;;;;5066277;28;20179;-60
2022/01/07 04:33:02;;;;;;;0.60;0.60;;;;;;;;;;5072515;28;20179;-58
2022/01/07 04:35:28;;;;;;;0.70;0.70;;;;;;;;;;5054878;28;20168;-61
2022/01/07 04:37:54;;;;;;;0.68;0.68;;;;;;;;;;5054703;28;20219;-61
2022/01/07 04:40:21;;;;;;;0.63;0.63;;;;;;;;;;5054828;28;20202;-58
2022/01/07 04:45:20;;;;;;;0.60;0.60;;;;;;;;;;5086871;22;20235;-63
2022/01/07 04:47:46;;;;;;;0.52;0.52;;;;;;;;;;5074123;28;20175;-63
2022/01/07 04:50:14;;;;;;;0.60;0.60;;;;;;;;;;5074075;28;20613;-63
2022/01/07 04:52:43;;;;;;;0.70;0.70;;;;;;;;;;5055898;28;20186;-63
2022/01/07 04:55:10;;;;;;;0.70;0.70;;;;;;;;;;5073309;28;20248;-63
2022/01/07 04:57:36;;;;;;;0.70;0.70;;;;;;;;;;5055901;28;20262;-63
2022/01/07 05:00:03;;;;;;;0.70;0.70;;;;;;;;;;5071984;28;20297;-63
2022/01/07 05:02:29;;;;;;;0.60;0.60;;;;;;;;;;5065869;28;20433;-63
2022/01/07 05:04:55;;;;;;;0.70;0.70;;;;;;;;;;5061077;28;20195;-64
2022/01/07 05:07:21;;;;;;;0.60;0.60;;;;;;;;;;5073083;28;20448;-62
2022/01/07 05:09:47;;;;;;;0.70;0.70;;;;;;;;;;5068004;28;20519;-63
2022/01/07 05:12:13;;;;;;;0.70;0.70;;;;;;;;;;5045158;28;20713;-63
2022/01/07 05:14:39;;;;;;;0.60;0.60;;;;;;;;;;5054978;28;20204;-63
2022/01/07 05:17:05;;;;;;;0.60;0.60;;;;;;;;;;5070050;28;20182;-63
2022/01/07 05:19:31;;;;;;;0.70;0.70;;;;;;;;;;5073831;28;20175;-63
2022/01/07 05:21:57;;;;;;;0.60;0.60;;;;;;;;;;5055071;28;20176;-63
2022/01/07 05:24:23;;;;;;;0.50;0.50;;;;;;;;;;5064448;28;20706;-63
2022/01/07 05:26:49;;;;;;;0.70;0.70;;;;;;;;;;5053598;28;20403;-63
2022/01/07 05:29:16;;;;;;;0.70;0.70;;;;;;;;;;5053442;28;20959;-63
2022/01/07 05:31:42;;;;;;;0.70;0.70;;;;;;;;;;5053754;28;20633;-63
2022/01/07 05:34:08;;;;;;;0.70;0.70;;;;;;;;;;5053195;28;20192;-63
2022/01/07 05:36:34;;;;;;;0.60;0.60;;;;;;;;;;5053470;28;20476;-63
2022/01/07 05:39:00;;;;;;;0.67;0.67;;;;;;;;;;5053383;28;20402;-63
2022/01/07 05:41:26;;;;;;;0.63;0.63;;;;;;;;;;5065349;28;20481;-63
2022/01/07 05:43:52;;;;;;;0.60;0.60;;;;;;;;;;5072733;28;21150;-63
2022/01/07 05:46:18;;;;;;;0.60;0.60;;;;;;;;;;5073184;28;20179;-63
2022/01/07 05:48:47;;;;;;;0.70;0.70;;;;;;;;;;5055281;28;20474;-63
2022/01/07 05:51:14;;;;;;;0.70;0.70;;;;;;;;;;5073208;28;20175;-63
2022/01/07 05:53:40;;;;;;;0.70;0.70;;;;;;;;;;5072832;28;20207;-63
2022/01/07 05:56:06;;;;;;;0.60;0.60;;;;;;;;;;5072984;28;20183;-63
2022/01/07 05:58:32;;;;;;;0.70;0.70;;;;;;;;;;5072959;28;20167;-63
2022/01/07 06:00:58;;;;;;;0.70;0.70;;;;;;;;;;5072925;28;20199;-63
2022/01/07 06:03:24;;;;;;;0.60;0.60;;;;;;;;;;5072815;28;20195;-63
2022/01/07 06:05:50;;;;;;;0.50;0.50;;;;;;;;;;5072920;28;20693;-63
2022/01/07 06:08:16;;;;;;;0.70;0.70;;;;;;;;;;5073128;28;20565;-63
2022/01/07 06:10:42;;;;;;;0.70;0.70;;;;;;;;;;5072796;28;20171;-63
2022/01/07 06:13:08;;;;;;;0.60;0.60;;;;;;;;;;5054445;28;20274;-62
2022/01/07 06:15:34;;;;;;;0.63;0.63;;;;;;;;;;5072700;28;20185;-63
2022/01/07 06:18:03;;;;;;;0.63;0.63;;;;;;;;;;5060038;28;20182;-63
2022/01/07 06:20:28;;;;;;;0.70;0.70;;;;;;;;;;5052598;28;20191;-62
2022/01/07 06:22:55;;;;;;;0.60;0.60;;;;;;;;;;5052325;28;20199;-63
2022/01/07 06:25:20;;;;;;;0.60;0.60;;;;;;;;;;5052390;28;20407;-63
2022/01/07 06:27:46;;;;;;;0.70;0.70;;;;;;;;;;5051886;28;20183;-63
2022/01/07 06:30:12;;;;;;;0.60;0.60;;;;;;;;;;5067408;28;20436;-63
2022/01/07 06:32:38;;;;;;;0.60;0.60;;;;;;;;;;5072117;28;20410;-63
2022/01/07 06:35:05;;;;;;;0.73;0.73;;;;;;;;;;5063312;28;20202;-63
2022/01/07 06:37:31;;;;;;;0.63;0.63;;;;;;;;;;5051942;28;20498;-63
2022/01/07 06:39:58;;;;;;;0.70;0.70;;;;;;;;;;5047463;28;20208;-63
2022/01/07 06:42:24;;;;;;;0.60;0.60;;;;;;;;;;5037906;28;20184;-63
2022/01/07 06:44:50;;;;;;;0.67;0.67;;;;;;;;;;5051448;28;20211;-63
2022/01/07 06:47:16;;;;;;;0.73;0.73;;;;;;;;;;5051872;28;20422;-63
2022/01/07 06:49:42;;;;;;;0.70;0.70;;;;;;;;;;5051829;28;20180;-63
2022/01/07 06:52:08;;;;;;;0.60;0.60;;;;;;;;;;5051526;28;20283;-63
2022/01/07 06:54:34;;;;;;;0.70;0.70;;;;;;;;;;5033003;28;20453;-63
2022/01/07 06:57:00;;;;;;;0.70;0.70;;;;;;;;;;5050767;28;20180;-63
2022/01/07 06:59:26;;;;;;;0.80;0.80;;;;;;;;;;5051303;28;20172;-63
2022/01/07 07:01:52;;;;;;;0.70;0.70;;;;;;;;;;5051613;28;20496;-63
2022/01/07 07:04:18;;;;;;;0.70;0.70;;;;;;;;;;5051232;28;20199;-63
2022/01/07 07:06:44;;;;;;;0.60;0.60;;;;;;;;;;5051212;28;20426;-63
2022/01/07 07:09:11;;;;;;;0.70;0.70;;;;;;;;;;5051167;28;20176;-63
2022/01/07 07:11:37;;;;;;;0.60;0.60;;;;;;;;;;5051844;28;20187;-63
2022/01/07 07:14:03;;;;;;;0.70;0.70;;;;;;;;;;5033516;28;20203;-63
2022/01/07 07:16:29;;;;;;;0.70;0.70;;;;;;;;;;5051286;28;20184;-63
2022/01/07 07:18:55;;;;;;;0.60;0.60;;;;;;;;;;5051394;28;20191;-63
2022/01/07 07:21:21;;;;;;;0.60;0.60;;;;;;;;;;5051252;28;20226;-63
2022/01/07 07:23:47;;;;;;;0.70;0.70;;;;;;;;;;5050968;28;20869;-63
2022/01/07 07:26:13;;;;;;;0.80;0.80;;;;;;;;;;5051156;28;20932;-63
2022/01/07 07:28:40;;;;;;;0.70;0.70;;;;;;;;;;5051212;28;20237;-64
2022/01/07 07:31:11;;;;;;;0.65;0.65;;;;;;;;;;5051014;28;20421;-63
2022/01/07 07:34:06;;;;;;;0.60;0.60;;;;;;;;;;5050882;28;20252;-63
2022/01/07 07:36:32;;;;;;;0.60;0.60;;;;;;;;;;5051094;28;20190;-63
2022/01/07 07:39:06;;;;;;;0.70;0.70;;;;;;;;;;5050844;28;20258;-63
2022/01/07 07:41:32;;;;;;;0.70;0.70;;;;;;;;;;5050741;28;20208;-63
2022/01/07 07:43:59;;;;;;;0.63;0.63;;;;;;;;;;5050542;28;20254;-63
2022/01/07 07:46:25;;;;;;;0.70;0.70;;;;;;;;;;5051181;28;20199;-63
2022/01/07 07:48:52;;;;;;;0.70;0.70;;;;;;;;;;5051133;28;20535;-63
2022/01/07 07:51:19;;;;;;;0.70;0.70;;;;;;;;;;5050726;28;20191;-63
2022/01/07 07:53:45;;;;;;;0.70;0.70;;;;;;;;;;5050545;28;20849;-63
2022/01/07 07:56:12;;;;;;;0.70;0.70;;;;;;;;;;5051069;28;20266;-63
2022/01/07 07:58:38;;;;;;;0.70;0.70;;;;;;;;;;5050906;28;20175;-63
2022/01/07 08:01:04;;;;;;;0.60;0.60;;;;;;;;;;5032691;28;20219;-63
2022/01/07 08:03:30;;;;;;;0.60;0.60;;;;;;;;;;5050834;28;20439;-63
2022/01/07 08:05:56;;;;;;;0.70;0.70;;;;;;;;;;5050753;28;20425;-63
2022/01/07 08:08:22;;;;;;;0.70;0.70;;;;;;;;;;5054110;28;20908;-63
2022/01/07 08:10:51;;;;;;;0.80;0.80;;;;;;;;;;5054886;28;20787;-63
2022/01/07 08:13:30;;;;;;;0.60;0.60;;;;;;;;;;5054774;28;20762;-63
2022/01/07 08:16:03;;;;;;;0.60;0.60;;;;;;;;;;5054989;28;20264;-63
2022/01/07 08:18:31;;;;;;;0.60;0.60;;;;;;;;;;5054559;28;20183;-63
2022/01/07 08:20:58;;;;;;;0.60;0.60;;;;;;;;;;5054849;28;20204;-63
2022/01/07 08:23:24;;;;;;;0.60;0.60;;;;;;;;;;5054356;28;20257;-63
2022/01/07 08:25:50;;;;;;;0.60;0.60;;;;;;;;;;5037051;28;20184;-63
2022/01/07 08:28:17;;;;;;;0.70;0.70;;;;;;;;;;5054034;28;20183;-63
2022/01/07 08:31:01;;;;;;;0.60;0.60;;;;;;;;;;5054461;28;20434;-64
2022/01/07 08:36:13;;;;;;;0.60;0.60;;;;;;;;;;5055193;28;20246;-63
2022/01/07 08:38:39;;;;;;;0.60;0.60;;;;;;;;;;5053916;28;20264;-63
2022/01/07 08:41:05;;;;;;;0.60;0.60;;;;;;;;;;5053963;28;20294;-63
2022/01/07 08:43:31;;;;;;;0.60;0.60;;;;;;;;;;5053410;28;20625;-63
2022/01/07 08:45:57;;;;;;;0.60;0.60;;;;;;;;;;5054252;28;20184;-63
2022/01/07 08:48:24;;;;;;;0.60;0.60;;;;;;;;;;5054309;28;20418;-63
2022/01/07 08:50:50;;;;;;;0.60;0.60;;;;;;;;;;5054167;28;20495;-64
2022/01/07 08:53:16;;;;;;;0.60;0.60;;;;;;;;;;5053750;28;20203;-63
2022/01/07 08:55:42;;;;;;;0.60;0.60;;;;;;;;;;5054376;28;20458;-63
2022/01/07 08:58:08;;;;;;;0.60;0.60;;;;;;;;;;5054344;28;20794;-64
2022/01/07 09:00:34;;;;;;;0.60;0.60;;;;;;;;;;5053538;28;20458;-63
2022/01/07 09:03:00;;;;;;;0.70;0.70;;;;;;;;;;5053466;28;20418;-63
2022/01/07 09:05:26;;;;;;;0.60;0.60;;;;;;;;;;5054318;28;20406;-63
2022/01/07 09:07:52;;;;;;;0.60;0.60;;;;;;;;;;5051769;28;20184;-63
2022/01/07 09:10:18;;;;;;;0.60;0.60;;;;;;;;;;5053537;28;20187;-63
2022/01/07 09:12:45;;;;;;;0.60;0.60;;;;;;;;;;5053947;28;20549;-63
2022/01/07 09:15:12;;;;;;;0.60;0.60;;;;;;;;;;5053536;28;20214;-63
2022/01/07 09:17:38;;;;;;;0.52;0.52;;;;;;;;;;5052637;28;20182;-63
2022/01/07 09:20:06;;;;;;;0.70;0.70;;;;;;;;;;5053486;28;20283;-63
2022/01/07 09:22:32;;;;;;;0.60;0.60;;;;;;;;;;5052856;28;20656;-64
2022/01/07 09:24:58;;;;;;;0.60;0.60;;;;;;;;;;5052499;28;20239;-64
2022/01/07 09:27:24;;;;;;;0.50;0.50;;;;;;;;;;5053168;28;20548;-63
2022/01/07 09:29:50;;;;;;;0.60;0.60;;;;;;;;;;5053482;28;20216;-63
2022/01/07 09:32:16;;;;;;;0.60;0.60;;;;;;;;;;5053319;28;20210;-63
2022/01/07 09:34:42;;;;;;;0.60;0.60;;;;;;;;;;5034577;28;20909;-63
2022/01/07 09:37:08;;;;;;;0.60;0.60;;;;;;;;;;5053362;28;20476;-63
2022/01/07 09:39:36;;;;;;;0.60;0.60;;;;;;;;;;5052809;28;20417;-63
2022/01/07 09:42:03;;;;;;;0.60;0.60;;;;;;;;;;5052010;28;20564;-63
2022/01/07 09:44:29;;;;;;;0.70;0.70;;;;;;;;;;5052825;28;20207;-63
2022/01/07 09:46:56;;;;;;;0.60;0.60;;;;;;;;;;5053064;28;20164;-63
2022/01/07 09:49:22;;;;;;;0.60;0.60;;;;;;;;;;5035268;28;20709;-63
2022/01/07 09:51:48;;;;;;;0.70;0.70;;;;;;;;;;5051610;28;20176;-63
2022/01/07 09:54:14;;;;;;;0.60;0.60;;;;;;;;;;5051944;28;20249;-63
2022/01/07 09:56:40;;;;;;;0.60;0.60;;;;;;;;;;5035047;28;20925;-63
2022/01/07 09:59:07;;;;;;;0.57;0.57;;;;;;;;;;5052972;28;20419;-63
2022/01/07 10:01:51;;;;;;;0.55;0.55;;;;;;;;;;5051987;28;20298;-63
2022/01/07 10:04:33;;;;;;;0.60;0.60;;;;;;;;;;5045836;28;20207;-63
2022/01/07 10:07:34;;;;;;;0.63;0.63;;;;;;;;;;5071787;28;20171;-63
2022/01/07 10:10:07;;;;;;;0.60;0.60;;;;;;;;;;4958874;28;20197;-63
2022/01/07 10:12:49;;;;;;;0.60;0.60;;;;;;;;;;5039816;28;20261;-63
2022/01/07 10:15:15;;;;;;;0.70;0.70;;;;;;;;;;5052883;28;20234;-63
2022/01/07 10:17:42;;;;;;;0.60;0.60;;;;;;;;;;5052706;28;20543;-63
2022/01/07 10:20:08;;;;;;;0.70;0.70;;;;;;;;;;5051698;28;20218;-64
2022/01/07 10:22:57;;;;;;;0.70;0.70;;;;;;;;;;5052669;28;20183;-63
2022/01/07 10:25:27;;;;;;;0.60;0.60;;;;;;;;;;5051347;28;20168;-63
2022/01/07 10:27:58;;;;;;;0.65;0.65;;;;;;;;;;5031429;28;20169;-63
2022/01/07 10:30:27;;;;;;;0.60;0.60;;;;;;;;;;5031544;28;20636;-63
2022/01/07 10:32:56;;;;;;;0.70;0.70;;;;;;;;;;5032967;28;20219;-63
2022/01/07 10:35:23;;;;;;;0.60;0.60;;;;;;;;;;5032157;28;20544;-63
2022/01/07 10:37:52;;;;;;;0.60;0.60;;;;;;;;;;5032213;28;20185;-63
2022/01/07 10:40:30;;;;;;;0.60;0.60;;;;;;;;;;5032485;28;20204;-63
2022/01/07 10:43:13;;;;;;;0.60;0.60;;;;;;;;;;5032061;28;20180;-63
2022/01/07 10:45:40;;;;;;;0.60;0.60;;;;;;;;;;5035841;22;20287;-64
2022/01/07 10:48:07;;;;;;;0.60;0.60;;;;;;;;;;4975132;28;20209;-65
2022/01/07 10:50:36;;;;;;;0.63;0.63;;;;;;;;;;4998115;28;20182;-64
2022/01/07 10:53:13;;;;;;;0.70;0.70;;;;;;;;;;5011900;28;20216;-64
2022/01/07 10:55:39;;;;;;;0.60;0.60;;;;;;;;;;5010856;28;20204;-65
2022/01/07 10:58:05;;;;;;;0.60;0.60;;;;;;;;;;4994280;28;20244;-64
2022/01/07 11:00:36;;;;;;;0.70;0.70;;;;;;;;;;4994040;28;21014;-64
2022/01/07 11:03:07;;;;;;;0.60;0.60;;;;;;;;;;4996404;28;20734;-65
2022/01/07 11:05:33;;;;;;;0.60;0.60;;;;;;;;;;4997414;28;20197;-65
2022/01/07 11:07:59;;;;;;;0.60;0.60;;;;;;;;;;4982102;28;20194;-65
2022/01/07 11:10:26;;;;;;;0.50;0.50;;;;;;;;;;4992365;28;20285;-65
2022/01/07 11:12:52;;;;;;;0.65;0.65;;;;;;;;;;5010034;28;20185;-65
2022/01/07 11:15:18;;;;;;;0.60;0.60;;;;;;;;;;5004215;28;20198;-62
2022/01/07 11:17:44;;;;;;;0.70;0.70;;;;;;;;;;5006188;28;20185;-64
2022/01/07 11:20:12;;;;;;;0.60;0.60;;;;;;;;;;5001389;28;21061;-62
2022/01/07 11:22:40;;;;;;;0.60;0.60;;;;;;;;;;4977654;28;20937;-64
2022/01/07 11:25:11;;;;;;;0.60;0.60;;;;;;;;;;4993239;28;20205;-64
2022/01/07 11:27:46;;;;;;;0.60;0.60;;;;;;;;;;4974838;28;20178;-65
2022/01/07 11:30:17;;;;;;;0.60;0.60;;;;;;;;;;5006614;28;20181;-65
2022/01/07 11:32:44;;;;;;;0.60;0.60;;;;;;;;;;4981777;28;20190;-66
2022/01/07 11:35:19;;;;;;;0.60;0.60;;;;;;;;;;4991855;28;20222;-65
2022/01/07 11:37:49;;;;;;;0.60;0.60;;;;;;;;;;4992075;28;20174;-64
2022/01/07 11:40:33;;;;;;;0.55;0.55;;;;;;;;;;4991957;28;20202;-65
2022/01/07 11:43:00;;;;;;;0.70;0.70;;;;;;;;;;4991990;28;20175;-64
2022/01/07 11:45:27;;;;;;;0.60;0.60;;;;;;;;;;4991971;28;20211;-65
2022/01/07 11:47:54;;;;;;;0.60;0.60;;;;;;;;;;4992100;28;20264;-63
2022/01/07 11:50:20;;;;;;;0.70;0.70;;;;;;;;;;4992004;28;20218;-65
2022/01/07 11:53:01;;;;;;;0.60;0.60;;;;;;;;;;4974375;28;20237;-65
2022/01/07 11:55:27;;;;;;;0.60;0.60;;;;;;;;;;4992226;28;20516;-65
2022/01/07 11:57:53;;;;;;;0.50;0.50;;;;;;;;;;4992130;28;20265;-65
2022/01/07 12:00:37;;;;;;;0.70;0.70;;;;;;;;;;4987622;28;20457;-65
2022/01/07 12:03:03;;;;;;;0.60;0.60;;;;;;;;;;4991537;28;20416;-63
2022/01/07 12:05:31;;;;;;;0.60;0.60;;;;;;;;;;4991856;28;20191;-64
2022/01/07 12:07:57;;;;;;;0.50;0.50;;;;;;;;;;4991423;28;20418;-64
2022/01/07 12:10:23;;;;;;;0.60;0.60;;;;;;;;;;4991852;28;20183;-66
2022/01/07 12:12:50;;;;;;;0.70;0.70;;;;;;;;;;4991658;28;20185;-66
2022/01/07 12:15:16;;;;;;;0.60;0.60;;;;;;;;;;4991540;28;20465;-65
2022/01/07 12:17:42;;;;;;;0.50;0.50;;;;;;;;;;4991871;28;20638;-65
2022/01/07 12:20:46;;;;;;;0.60;0.60;;;;;;;;;;4991263;28;20247;-65
2022/01/07 12:23:18;;;;;;;0.70;0.70;;;;;;;;;;4991664;28;20174;-65
2022/01/07 12:25:48;;;;;;;0.60;0.60;;;;;;;;;;4991907;28;20198;-64
2022/01/07 12:28:14;;;;;;;0.57;0.57;;;;;;;;;;4991721;28;20258;-65
2022/01/07 12:30:41;;;;;;;0.60;0.60;;;;;;;;;;4991165;28;20598;-64
2022/01/07 12:33:08;;;;;;;0.60;0.60;;;;;;;;;;4991500;28;20813;-65
2022/01/07 12:35:34;;;;;;;0.70;0.70;;;;;;;;;;4991539;28;20202;-64
2022/01/07 12:38:00;;;;;;;0.60;0.60;;;;;;;;;;4991509;28;20592;-66
2022/01/07 12:40:26;;;;;;;0.57;0.57;;;;;;;;;;4991527;28;20207;-65
2022/01/07 12:42:51;;;;;;;0.60;0.60;;;;;;;;;;4990904;28;20919;-62
2022/01/07 12:45:20;;;;;;;0.70;0.70;;;;;;;;;;4990610;28;20212;-65
2022/01/07 12:47:46;;;;;;;0.60;0.60;;;;;;;;;;4990699;28;20414;-64
2022/01/07 12:50:13;;;;;;;0.50;0.50;;;;;;;;;;4991609;28;20178;-66
2022/01/07 12:52:42;;;;;;;0.70;0.70;;;;;;;;;;4992161;28;20594;-63
2022/01/07 12:55:18;;;;;;;0.60;0.60;;;;;;;;;;4995085;28;20233;-64
2022/01/07 12:57:48;;;;;;;0.60;0.60;;;;;;;;;;4994908;28;20177;-63
2022/01/07 13:00:26;;;;;;;0.52;0.52;;;;;;;;;;4994922;28;20213;-64
2022/01/07 13:02:55;;;;;;;0.70;0.70;;;;;;;;;;4994833;28;20181;-63
2022/01/07 13:05:21;;;;;;;0.50;0.50;;;;;;;;;;4994931;28;20234;-65
2022/01/07 13:07:51;;;;;;;0.50;0.50;;;;;;;;;;4994795;28;20170;-66
2022/01/07 13:10:36;;;;;;;0.50;0.50;;;;;;;;;;4994574;28;20402;-64
2022/01/07 13:13:06;;;;;;;0.60;0.60;;;;;;;;;;4993822;28;20182;-63
2022/01/07 13:15:41;;;;;;;0.60;0.60;;;;;;;;;;4994715;28;20269;-64
2022/01/07 13:18:26;;;;;;;0.55;0.55;;;;;;;;;;4994534;28;20713;-64
2022/01/07 13:20:55;;;;;;;0.60;0.60;;;;;;;;;;4994363;28;20291;-63
2022/01/07 13:23:22;;;;;;;0.60;0.60;;;;;;;;;;4994210;28;20547;-63
2022/01/07 13:25:48;;;;;;;0.60;0.60;;;;;;;;;;4994392;28;20668;-64
2022/01/07 13:28:14;;;;;;;0.60;0.60;;;;;;;;;;4977194;28;20171;-64
2022/01/07 13:30:42;;;;;;;0.60;0.60;;;;;;;;;;4994307;28;20181;-65
2022/01/07 13:33:09;;;;;;;0.50;0.50;;;;;;;;;;4993311;28;20606;-64
2022/01/07 13:35:36;;;;;;;0.60;0.60;;;;;;;;;;4994204;28;20207;-64
2022/01/07 13:38:03;;;;;;;0.70;0.70;;;;;;;;;;4993966;28;20733;-64
2022/01/07 13:40:29;;;;;;;0.70;0.70;;;;;;;;;;4994045;28;20207;-63
2022/01/07 13:43:17;;;;;;;0.60;0.60;;;;;;;;;;4993900;28;20572;-65
2022/01/07 13:45:43;;;;;;;0.50;0.50;;;;;;;;;;4993953;28;20212;-63
2022/01/07 13:48:13;;;;;;;0.60;0.60;;;;;;;;;;4993954;28;20174;-64
2022/01/07 13:50:43;;;;;;;0.60;0.60;;;;;;;;;;4993963;28;20262;-63
2022/01/07 13:53:12;;;;;;;0.60;0.60;;;;;;;;;;4993561;28;20265;-64
2022/01/07 13:55:39;;;;;;;0.60;0.60;;;;;;;;;;4993878;28;20205;-64
2022/01/07 13:58:06;;;;;;;0.60;0.60;;;;;;;;;;4997401;28;20190;-64
2022/01/07 14:00:32;;;;;;;0.70;0.70;;;;;;;;;;5013139;28;20206;-63
2022/01/07 14:02:58;;;;;;;0.70;0.70;;;;;;;;;;5012809;28;20224;-64
2022/01/07 14:05:24;;;;;;;0.60;0.60;;;;;;;;;;5013054;28;20435;-62
2022/01/07 14:07:50;;;;;;;0.60;0.60;;;;;;;;;;4997501;28;20422;-65
2022/01/07 14:10:18;;;;;;;0.60;0.60;;;;;;;;;;4993429;28;20603;-64
2022/01/07 14:12:51;;;;;;;0.70;0.70;;;;;;;;;;4992483;28;20202;-62
2022/01/07 14:15:19;;;;;;;0.60;0.60;;;;;;;;;;4993271;28;20227;-64
2022/01/07 14:17:45;;;;;;;0.60;0.60;;;;;;;;;;4995722;28;20656;-62
2022/01/07 14:20:12;;;;;;;0.60;0.60;;;;;;;;;;4993372;28;20599;-62
2022/01/07 14:22:43;;;;;;;0.70;0.70;;;;;;;;;;4993252;28;20166;-64
2022/01/07 14:25:10;;;;;;;0.60;0.60;;;;;;;;;;4993484;28;20198;-63
2022/01/07 14:27:37;;;;;;;0.70;0.70;;;;;;;;;;4993353;28;20573;-62
2022/01/07 14:30:04;;;;;;;0.60;0.60;;;;;;;;;;4993079;28;20184;-62
2022/01/07 14:32:30;;;;;;;0.60;0.60;;;;;;;;;;4993079;28;20187;-63
2022/01/07 14:34:58;;;;;;;0.60;0.60;;;;;;;;;;4993204;28;20196;-64
2022/01/07 14:37:28;;;;;;;0.60;0.60;;;;;;;;;;4993003;28;20179;-64
2022/01/07 14:39:54;;;;;;;0.60;0.60;;;;;;;;;;4975403;28;20182;-62
2022/01/07 14:42:21;;;;;;;0.60;0.60;;;;;;;;;;4992727;28;20225;-64
2022/01/07 14:44:48;;;;;;;0.60;0.60;;;;;;;;;;4992594;28;20301;-62
2022/01/07 14:47:14;;;;;;;0.60;0.60;;;;;;;;;;4992987;28;20497;-62
2022/01/07 14:49:40;;;;;;;0.60;0.60;;;;;;;;;;4992959;28;20174;-64
2022/01/07 14:52:07;;;;;;;0.60;0.60;;;;;;;;;;4992784;28;20800;-65